Time;durP1;ratioP1;P1;durP2;ratioP2;P2;SDS_P1;SDS_P2;PMS_P1;PMS_P2;Temp;Humidity;BMP_temperature;BMP_pressure;BME280_temperature;BME280_humidity;BME280_pressure;Samples;Min_cycle;Max_cycle;Signal;HPM_P1;HPM_P2
2024/03/20 00:01:50;;;;;;;5.70;2.03;;;13.20;72.30;;;;;;2308897;53;21352;-66
2024/03/20 00:04:16;;;;;;;4.50;1.70;;;13.20;72.40;;;;;;2313442;55;20945;-67
2024/03/20 00:06:44;;;;;;;7.82;2.85;;;13.10;72.30;;;;;;2313119;55;21008;-66
2024/03/20 00:09:10;;;;;;;5.15;2.15;;;13.10;72.40;;;;;;2313733;54;21044;-67
2024/03/20 00:11:36;;;;;;;4.47;2.10;;;13.10;72.40;;;;;;2315291;55;21085;-66
2024/03/20 00:14:05;;;;;;;3.75;1.73;;;13.00;72.20;;;;;;2309378;55;21008;-66
2024/03/20 00:16:31;;;;;;;4.93;1.90;;;13.00;72.20;;;;;;2313848;53;21017;-66
2024/03/20 00:18:57;;;;;;;6.22;1.87;;;12.90;72.10;;;;;;2314271;55;20949;-65
2024/03/20 00:21:25;;;;;;;4.20;1.90;;;12.90;72.20;;;;;;2313548;53;21049;-65
2024/03/20 00:23:54;;;;;;;4.07;1.55;;;12.90;72.30;;;;;;2313959;53;20981;-66
2024/03/20 00:26:20;;;;;;;4.93;1.65;;;12.80;72.00;;;;;;2313472;54;20937;-66
2024/03/20 00:28:46;;;;;;;3.20;1.48;;;12.80;72.20;;;;;;2313835;53;20961;-67
2024/03/20 00:31:13;;;;;;;3.28;1.33;;;12.70;72.10;;;;;;2313646;53;21088;-66
2024/03/20 00:33:39;;;;;;;3.85;1.50;;;12.70;72.10;;;;;;2314121;55;20960;-65
2024/03/20 00:36:05;;;;;;;3.53;1.50;;;12.70;72.20;;;;;;2313822;55;21546;-67
2024/03/20 00:38:32;;;;;;;5.87;1.60;;;12.60;72.00;;;;;;2314102;53;21285;-67
2024/03/20 00:40:58;;;;;;;3.47;1.60;;;12.60;72.00;;;;;;2312348;53;20956;-66
2024/03/20 00:43:24;;;;;;;3.00;1.40;;;12.60;72.10;;;;;;2312257;55;20937;-66
2024/03/20 00:45:50;;;;;;;4.07;1.70;;;12.50;72.10;;;;;;2314116;53;21036;-66
2024/03/20 00:48:31;;;;;;;2.70;1.20;;;12.50;72.10;;;;;;2302064;54;21353;-66
2024/03/20 00:50:57;;;;;;;4.05;1.45;;;12.50;72.10;;;;;;2312592;55;20977;-67
2024/03/20 00:53:24;;;;;;;3.60;1.20;;;12.40;72.30;;;;;;2312921;55;21280;-67
2024/03/20 00:55:50;;;;;;;3.00;1.40;;;12.40;72.00;;;;;;2313512;55;20965;-65
2024/03/20 00:58:18;;;;;;;2.40;1.10;;;12.40;72.10;;;;;;2313001;53;20997;-67
2024/03/20 01:00:46;;;;;;;2.58;1.10;;;12.30;71.90;;;;;;2313206;55;21325;-66
2024/03/20 01:03:13;;;;;;;2.00;1.00;;;12.30;71.90;;;;;;2313020;55;20956;-65
2024/03/20 01:05:41;;;;;;;2.75;1.33;;;12.30;72.00;;;;;;2313759;53;20945;-67
2024/03/20 01:08:07;;;;;;;4.78;1.85;;;12.20;71.90;;;;;;2313498;54;21467;-66
2024/03/20 01:10:33;;;;;;;3.50;1.40;;;12.20;71.90;;;;;;2302050;55;21684;-66
2024/03/20 01:13:00;;;;;;;4.10;1.50;;;12.10;71.90;;;;;;2303506;55;20940;-66
2024/03/20 01:15:27;;;;;;;3.25;1.35;;;12.10;71.90;;;;;;2313331;55;21005;-67
2024/03/20 01:17:54;;;;;;;3.83;1.35;;;12.10;71.90;;;;;;2310985;55;20999;-66
2024/03/20 01:20:23;;;;;;;3.15;1.50;;;12.00;71.90;;;;;;2294841;55;20960;-66
2024/03/20 01:22:49;;;;;;;2.97;1.27;;;12.00;71.90;;;;;;2294837;55;21020;-66
2024/03/20 01:25:16;;;;;;;3.47;1.70;;;12.00;71.90;;;;;;2305910;55;21237;-67
2024/03/20 01:27:44;;;;;;;3.35;1.50;;;12.00;71.90;;;;;;2313261;53;20961;-67
2024/03/20 01:30:13;;;;;;;3.15;1.37;;;11.90;71.90;;;;;;2314501;53;21509;-66
2024/03/20 01:32:39;;;;;;;3.45;1.30;;;11.90;71.90;;;;;;2311696;53;20965;-66
2024/03/20 01:35:08;;;;;;;2.50;1.17;;;11.90;72.00;;;;;;2312149;55;21515;-66
2024/03/20 01:37:34;;;;;;;2.25;1.02;;;11.80;72.00;;;;;;2313473;55;21034;-67
2024/03/20 01:40:01;;;;;;;3.33;1.33;;;11.80;72.10;;;;;;2313653;55;21040;-67
2024/03/20 01:42:27;;;;;;;2.60;1.20;;;11.90;72.20;;;;;;2315786;55;21025;-66
2024/03/20 01:45:27;;;;;;;3.05;1.30;;;11.70;72.00;;;;;;2308869;55;21073;-66
2024/03/20 01:47:53;;;;;;;3.72;1.40;;;11.70;71.50;;;;;;2283311;55;20953;-67
2024/03/20 01:50:19;;;;;;;2.70;1.17;;;11.70;72.00;;;;;;2515357;55;20976;-67
2024/03/20 01:52:55;;;;;;;3.05;1.30;;;11.70;72.20;;;;;;2304879;53;20945;-66
2024/03/20 01:55:23;;;;;;;2.80;1.17;;;11.70;71.80;;;;;;2313337;53;21004;-66
2024/03/20 01:57:49;;;;;;;2.17;1.00;;;11.60;72.10;;;;;;2312658;55;21049;-67
2024/03/20 02:00:23;;;;;;;2.12;0.90;;;11.60;72.10;;;;;;2313737;54;20984;-66
2024/03/20 02:02:50;;;;;;;2.60;1.05;;;11.60;72.10;;;;;;2313399;55;21069;-66
2024/03/20 02:05:17;;;;;;;2.45;1.12;;;11.50;72.00;;;;;;2312105;55;22008;-67
2024/03/20 02:07:47;;;;;;;4.05;1.48;;;11.50;72.00;;;;;;2312774;53;21040;-65
2024/03/20 02:10:14;;;;;;;3.50;1.30;;;11.50;72.00;;;;;;2312960;55;21394;-67
2024/03/20 02:12:44;;;;;;;2.65;1.23;;;11.50;71.90;;;;;;2311755;55;21045;-66
2024/03/20 02:15:10;;;;;;;3.33;1.40;;;11.40;71.80;;;;;;2312642;55;21357;-66
2024/03/20 02:17:39;;;;;;;2.70;1.20;;;11.40;71.90;;;;;;2312914;55;21036;-66
2024/03/20 02:20:08;;;;;;;2.87;1.20;;;11.40;71.90;;;;;;2313093;55;21004;-66
2024/03/20 02:22:44;;;;;;;2.85;1.10;;;11.40;71.90;;;;;;2312656;55;20980;-66
2024/03/20 02:25:10;;;;;;;3.37;1.20;;;11.30;71.60;;;;;;2312694;53;20953;-66
2024/03/20 02:27:37;;;;;;;2.25;1.12;;;11.30;71.80;;;;;;2313139;53;21001;-66
2024/03/20 02:30:08;;;;;;;3.35;1.10;;;11.30;71.90;;;;;;2312604;55;20917;-66
2024/03/20 02:32:35;;;;;;;2.45;1.00;;;11.30;71.70;;;;;;2316274;55;21053;-66
2024/03/20 02:35:03;;;;;;;2.53;1.20;;;11.20;71.70;;;;;;2288109;55;20953;-66
2024/03/20 02:37:29;;;;;;;5.97;1.65;;;11.20;71.80;;;;;;2313522;55;21048;-65
2024/03/20 02:39:59;;;;;;;5.22;2.83;;;11.20;71.80;;;;;;2313271;53;21069;-66
2024/03/20 02:42:28;;;;;;;6.72;3.33;;;11.10;71.50;;;;;;2312847;53;20941;-66
2024/03/20 02:44:54;;;;;;;8.55;4.70;;;11.10;71.70;;;;;;2313363;55;20961;-67
2024/03/20 02:47:22;;;;;;;9.30;4.95;;;11.10;71.70;;;;;;2312997;55;20985;-66
2024/03/20 02:49:50;;;;;;;7.35;4.22;;;11.10;71.70;;;;;;2316918;54;20945;-66
2024/03/20 02:52:18;;;;;;;6.25;3.45;;;11.00;71.60;;;;;;2290666;55;20980;-66
2024/03/20 02:54:44;;;;;;;7.07;3.78;;;11.00;71.70;;;;;;2313310;53;20960;-66
2024/03/20 02:57:11;;;;;;;6.80;3.70;;;11.00;71.70;;;;;;2313220;53;21414;-67
2024/03/20 02:59:37;;;;;;;8.25;4.18;;;11.00;71.70;;;;;;2314952;55;20973;-66
2024/03/20 03:02:03;;;;;;;10.73;4.30;;;11.00;71.70;;;;;;2308588;53;21723;-66
2024/03/20 03:04:30;;;;;;;8.45;4.00;;;10.90;71.60;;;;;;2313174;54;21249;-67
2024/03/20 03:06:56;;;;;;;8.40;3.53;;;10.90;71.60;;;;;;2313254;55;21284;-66
2024/03/20 03:09:22;;;;;;;5.70;2.75;;;10.80;71.60;;;;;;2313003;55;21107;-67
2024/03/20 03:11:50;;;;;;;8.43;3.05;;;10.80;71.60;;;;;;2313570;55;21028;-66
2024/03/20 03:14:16;;;;;;;4.53;2.10;;;10.80;71.70;;;;;;2313001;53;21076;-66
2024/03/20 03:16:43;;;;;;;5.30;2.45;;;10.80;71.70;;;;;;2313095;54;21025;-66
2024/03/20 03:19:09;;;;;;;5.80;2.08;;;10.70;71.60;;;;;;2312876;53;21048;-67
2024/03/20 03:21:41;;;;;;;3.40;1.90;;;10.70;71.60;;;;;;2312707;53;21001;-66
2024/03/20 03:24:07;;;;;;;4.03;2.28;;;10.70;71.60;;;;;;2313164;55;20984;-66
2024/03/20 03:26:35;;;;;;;6.12;2.10;;;10.70;71.70;;;;;;2314570;55;21017;-66
2024/03/20 03:29:01;;;;;;;4.93;2.50;;;10.60;71.80;;;;;;2309900;53;21064;-66
2024/03/20 03:31:28;;;;;;;3.78;1.98;;;10.60;71.90;;;;;;2313476;55;21426;-66
2024/03/20 03:33:55;;;;;;;3.67;2.00;;;10.60;72.00;;;;;;2313032;55;21935;-66
2024/03/20 03:36:22;;;;;;;3.83;1.92;;;10.60;72.00;;;;;;2313168;55;21025;-66
2024/03/20 03:38:49;;;;;;;4.53;2.00;;;10.60;72.10;;;;;;2312504;55;21000;-66
2024/03/20 03:41:15;;;;;;;3.92;2.03;;;10.50;72.00;;;;;;2313668;54;20945;-67
2024/03/20 03:43:42;;;;;;;4.22;2.00;;;10.50;72.10;;;;;;2313380;55;20960;-66
2024/03/20 03:46:09;;;;;;;4.10;1.80;;;10.50;72.10;;;;;;2313067;55;21390;-67
2024/03/20 03:48:35;;;;;;;3.03;1.50;;;10.50;72.10;;;;;;2312907;53;20965;-67
2024/03/20 03:51:03;;;;;;;3.87;1.65;;;10.50;72.10;;;;;;2315169;53;21841;-66
2024/03/20 03:53:29;;;;;;;4.32;2.05;;;10.50;72.10;;;;;;2310847;53;20929;-66
2024/03/20 03:55:56;;;;;;;3.58;1.62;;;10.50;72.00;;;;;;2313089;53;20996;-67
2024/03/20 03:58:22;;;;;;;4.20;1.60;;;10.50;72.00;;;;;;2313163;53;21462;-65
2024/03/20 04:00:48;;;;;;;3.37;1.50;;;10.50;72.00;;;;;;2313162;53;20948;-66
2024/03/20 04:03:23;;;;;;;3.90;1.80;;;10.40;71.90;;;;;;2313840;55;20969;-66
2024/03/20 04:05:51;;;;;;;3.17;1.50;;;10.40;71.70;;;;;;2316197;53;21589;-66
2024/03/20 04:08:19;;;;;;;3.33;1.60;;;10.40;71.70;;;;;;2309006;55;20949;-66
2024/03/20 04:10:45;;;;;;;3.08;1.50;;;10.40;72.40;;;;;;2311912;55;21052;-65
2024/03/20 04:13:11;;;;;;;3.40;1.65;;;10.40;71.60;;;;;;2313419;54;20973;-66
2024/03/20 04:15:37;;;;;;;7.47;2.28;;;10.30;71.50;;;;;;2313364;55;21009;-65
2024/03/20 04:18:04;;;;;;;4.32;2.12;;;10.30;71.60;;;;;;2313073;53;20992;-65
2024/03/20 04:20:30;;;;;;;4.10;1.98;;;10.30;71.60;;;;;;2312854;53;21334;-66
2024/03/20 04:22:58;;;;;;;4.22;1.75;;;10.30;71.50;;;;;;2313477;55;21771;-65
2024/03/20 04:25:28;;;;;;;6.47;2.65;;;10.20;71.40;;;;;;2312443;55;21061;-67
2024/03/20 04:27:55;;;;;;;5.18;1.98;;;10.20;71.50;;;;;;2296680;55;21019;-66
2024/03/20 04:30:23;;;;;;;5.07;2.12;;;10.20;71.70;;;;;;2308947;55;21557;-65
2024/03/20 04:32:49;;;;;;;3.37;2.00;;;10.20;71.70;;;;;;2313375;53;21324;-67
2024/03/20 04:35:15;;;;;;;4.30;2.15;;;10.10;71.70;;;;;;2310908;55;21395;-66
2024/03/20 04:37:42;;;;;;;4.45;1.83;;;10.10;71.90;;;;;;2293888;55;20992;-66
2024/03/20 04:40:09;;;;;;;3.67;1.80;;;10.10;71.90;;;;;;2313399;55;21877;-66
2024/03/20 04:42:35;;;;;;;3.85;2.00;;;10.10;72.00;;;;;;2313030;55;21505;-66
2024/03/20 04:45:01;;;;;;;3.47;1.60;;;10.00;71.80;;;;;;2313894;53;20918;-65
2024/03/20 04:47:28;;;;;;;3.22;1.67;;;10.00;71.80;;;;;;2313408;55;20960;-65
2024/03/20 04:49:54;;;;;;;4.32;1.83;;;10.00;71.80;;;;;;2313005;55;20965;-66
2024/03/20 04:52:21;;;;;;;4.90;2.35;;;10.00;71.80;;;;;;2313592;53;21012;-66
2024/03/20 04:54:47;;;;;;;3.62;1.42;;;10.00;71.80;;;;;;2312806;53;20945;-66
2024/03/20 04:57:13;;;;;;;5.12;2.15;;;10.10;71.90;;;;;;2313363;53;21816;-67
2024/03/20 04:59:40;;;;;;;3.33;1.60;;;10.00;71.90;;;;;;2313888;55;20993;-66
2024/03/20 05:02:06;;;;;;;4.15;1.90;;;10.00;71.90;;;;;;2312991;55;20993;-66
2024/03/20 05:04:32;;;;;;;3.28;1.55;;;9.90;72.90;;;;;;2315579;55;20952;-66
2024/03/20 05:06:59;;;;;;;3.15;1.40;;;9.90;72.80;;;;;;2309121;53;21524;-66
2024/03/20 05:09:25;;;;;;;3.45;1.80;;;9.90;72.80;;;;;;2312807;53;21080;-66
2024/03/20 05:11:51;;;;;;;3.08;1.40;;;9.90;72.80;;;;;;2313194;53;20981;-65
2024/03/20 05:14:20;;;;;;;3.90;1.90;;;9.90;72.80;;;;;;2313172;53;20981;-65
2024/03/20 05:16:47;;;;;;;3.58;1.45;;;9.90;72.70;;;;;;2312642;55;20992;-67
2024/03/20 05:19:13;;;;;;;4.03;1.77;;;9.80;72.60;;;;;;2313135;53;20937;-66
2024/03/20 05:21:40;;;;;;;4.30;1.60;;;9.80;73.30;;;;;;2312604;55;20962;-65
2024/03/20 05:24:06;;;;;;;3.17;1.77;;;9.80;72.60;;;;;;2312516;55;21395;-66
2024/03/20 05:26:33;;;;;;;4.05;1.45;;;9.80;72.60;;;;;;2311930;55;21043;-66
2024/03/20 05:28:59;;;;;;;3.58;1.50;;;9.80;72.60;;;;;;2311549;53;20988;-67
2024/03/20 05:31:29;;;;;;;3.05;1.65;;;9.70;72.50;;;;;;2312791;55;21053;-65
2024/03/20 05:33:55;;;;;;;2.65;1.33;;;9.70;72.50;;;;;;2312961;55;20952;-66
2024/03/20 05:36:21;;;;;;;3.28;1.52;;;9.70;72.60;;;;;;2314133;53;20978;-66
2024/03/20 05:38:48;;;;;;;2.83;1.45;;;9.70;72.60;;;;;;2309267;55;20973;-66
2024/03/20 05:41:14;;;;;;;4.78;1.95;;;9.70;72.60;;;;;;2313222;55;21490;-66
2024/03/20 05:43:41;;;;;;;3.12;1.48;;;9.70;72.70;;;;;;2313028;53;21698;-66
2024/03/20 05:46:09;;;;;;;3.83;1.98;;;9.60;72.60;;;;;;2313066;53;22012;-66
2024/03/20 05:48:37;;;;;;;3.58;1.70;;;9.60;72.60;;;;;;2313240;55;21273;-66
2024/03/20 05:51:03;;;;;;;3.58;1.95;;;9.60;72.70;;;;;;2312646;53;21822;-66
2024/03/20 05:53:30;;;;;;;4.03;2.03;;;9.60;72.70;;;;;;2312783;53;21459;-66
2024/03/20 05:55:58;;;;;;;4.32;1.87;;;9.60;72.70;;;;;;2312877;53;21387;-67
2024/03/20 05:58:24;;;;;;;3.35;1.77;;;9.50;72.70;;;;;;2313347;55;20953;-66
2024/03/20 06:00:51;;;;;;;4.22;2.30;;;9.50;72.70;;;;;;2312736;55;21740;-65
2024/03/20 06:03:18;;;;;;;3.92;2.17;;;9.50;72.80;;;;;;2313781;55;21790;-67
2024/03/20 06:05:46;;;;;;;4.35;2.00;;;9.50;72.80;;;;;;2312225;55;21273;-66
2024/03/20 06:08:12;;;;;;;3.97;1.95;;;9.50;72.90;;;;;;2313337;53;21316;-66
2024/03/20 06:10:38;;;;;;;4.47;2.42;;;9.50;72.90;;;;;;2312085;53;21831;-66
2024/03/20 06:13:05;;;;;;;7.32;2.37;;;9.50;73.00;;;;;;2313040;55;20921;-66
2024/03/20 06:15:34;;;;;;;4.80;2.72;;;9.50;73.10;;;;;;2316485;53;21009;-66
2024/03/20 06:18:00;;;;;;;3.78;2.12;;;9.50;73.20;;;;;;2309184;55;21801;-67
2024/03/20 06:20:26;;;;;;;5.60;2.40;;;9.50;73.30;;;;;;2313240;55;21486;-66
2024/03/20 06:22:53;;;;;;;5.15;2.45;;;9.50;73.40;;;;;;2312714;53;21206;-66
2024/03/20 06:25:19;;;;;;;4.37;2.25;;;9.50;73.40;;;;;;2313551;53;21480;-66
2024/03/20 06:27:46;;;;;;;7.15;2.95;;;9.50;73.60;;;;;;2312427;55;21300;-66
2024/03/20 06:30:15;;;;;;;5.65;2.70;;;9.50;73.60;;;;;;2313560;53;21009;-66
2024/03/20 06:32:43;;;;;;;4.62;2.55;;;9.50;73.70;;;;;;2313021;53;20953;-66
2024/03/20 06:35:09;;;;;;;5.97;2.87;;;9.50;73.80;;;;;;2313138;54;20952;-66
2024/03/20 06:37:37;;;;;;;8.02;3.25;;;9.50;74.00;;;;;;2313224;53;21013;-66
2024/03/20 06:40:06;;;;;;;4.80;3.03;;;9.60;74.20;;;;;;2312303;55;20964;-66
2024/03/20 06:42:33;;;;;;;4.95;3.00;;;9.60;74.30;;;;;;2313067;54;20961;-66
2024/03/20 06:44:59;;;;;;;5.03;2.65;;;9.60;74.50;;;;;;2311977;55;20996;-66
2024/03/20 06:47:26;;;;;;;5.30;2.85;;;9.60;74.60;;;;;;2310990;55;20949;-66
2024/03/20 06:49:52;;;;;;;4.82;2.22;;;9.70;74.90;;;;;;2312586;53;21005;-67
2024/03/20 06:52:22;;;;;;;4.72;2.58;;;9.70;74.90;;;;;;2313314;53;20994;-65
2024/03/20 06:54:50;;;;;;;3.92;2.03;;;9.70;75.20;;;;;;2313030;55;21025;-67
2024/03/20 06:57:18;;;;;;;4.10;2.35;;;9.80;75.40;;;;;;2313426;55;21521;-66
2024/03/20 06:59:45;;;;;;;4.70;2.45;;;9.80;75.50;;;;;;2312798;53;21370;-66
2024/03/20 07:02:11;;;;;;;4.35;2.50;;;9.90;75.80;;;;;;2314473;53;21002;-67
2024/03/20 07:04:40;;;;;;;6.05;2.67;;;10.00;75.10;;;;;;2308612;55;21036;-66
2024/03/20 07:07:08;;;;;;;4.32;2.47;;;10.00;75.40;;;;;;2312138;53;21771;-66
2024/03/20 07:09:35;;;;;;;4.37;2.58;;;10.10;75.60;;;;;;2312377;54;20964;-67
2024/03/20 07:12:01;;;;;;;4.72;2.40;;;10.20;75.90;;;;;;2310847;53;21028;-66
2024/03/20 07:14:29;;;;;;;3.62;2.10;;;10.30;76.10;;;;;;2312892;53;21609;-66
2024/03/20 07:16:56;;;;;;;3.90;2.22;;;10.40;76.30;;;;;;2309376;53;20964;-67
2024/03/20 07:19:24;;;;;;;4.22;2.30;;;10.40;76.40;;;;;;2312616;55;20961;-66
2024/03/20 07:21:50;;;;;;;4.15;2.20;;;10.50;76.50;;;;;;2312573;55;21028;-67
2024/03/20 07:24:16;;;;;;;4.22;2.30;;;10.60;76.70;;;;;;2313821;55;20953;-67
2024/03/20 07:26:43;;;;;;;5.35;2.10;;;10.70;76.90;;;;;;2312905;53;20952;-67
2024/03/20 07:29:13;;;;;;;3.47;2.08;;;10.80;77.00;;;;;;2312705;53;21108;-66
2024/03/20 07:31:39;;;;;;;4.05;2.50;;;10.90;77.10;;;;;;2312964;55;20952;-66
2024/03/20 07:34:06;;;;;;;3.33;1.90;;;11.00;77.30;;;;;;2296317;55;20968;-66
2024/03/20 07:36:36;;;;;;;4.28;2.10;;;11.10;77.50;;;;;;2309825;55;21553;-67
2024/03/20 07:39:04;;;;;;;4.65;2.42;;;11.20;77.60;;;;;;2312392;55;21814;-67
2024/03/20 07:41:30;;;;;;;4.82;2.05;;;11.30;77.80;;;;;;2312898;55;20957;-66
2024/03/20 07:43:57;;;;;;;4.60;2.58;;;11.40;78.00;;;;;;2315442;55;20992;-67
2024/03/20 07:46:25;;;;;;;3.80;2.35;;;11.50;78.10;;;;;;2308674;53;21574;-67
2024/03/20 07:48:52;;;;;;;5.70;2.25;;;11.60;78.30;;;;;;2313985;55;21029;-66
2024/03/20 07:51:19;;;;;;;3.72;2.45;;;11.70;78.40;;;;;;2310863;53;20941;-66
2024/03/20 07:53:45;;;;;;;4.70;2.65;;;11.80;78.60;;;;;;2313011;53;20941;-66
2024/03/20 07:56:12;;;;;;;4.35;2.25;;;11.90;78.70;;;;;;2312987;53;21696;-68
2024/03/20 07:58:42;;;;;;;4.80;2.95;;;12.00;78.90;;;;;;2312762;53;21317;-67
2024/03/20 08:01:11;;;;;;;5.78;3.00;;;12.10;79.10;;;;;;2312605;55;21037;-67
2024/03/20 08:03:39;;;;;;;4.57;2.37;;;12.30;79.20;;;;;;2313745;53;21329;-67
2024/03/20 08:06:05;;;;;;;3.70;2.40;;;12.40;79.40;;;;;;2312607;55;21457;-67
2024/03/20 08:08:32;;;;;;;4.57;2.35;;;12.50;79.40;;;;;;2311931;53;20945;-67
2024/03/20 08:10:58;;;;;;;4.82;2.55;;;12.60;79.50;;;;;;2312119;55;20961;-67
2024/03/20 08:13:24;;;;;;;3.60;2.17;;;12.70;79.50;;;;;;2313361;55;20981;-67
2024/03/20 08:15:51;;;;;;;3.60;2.05;;;12.90;79.60;;;;;;2312770;53;21308;-67
2024/03/20 08:18:17;;;;;;;4.25;2.17;;;13.00;79.50;;;;;;2313344;55;21100;-68
2024/03/20 08:20:44;;;;;;;4.60;2.47;;;13.10;79.50;;;;;;2312228;53;20925;-67
2024/03/20 08:23:10;;;;;;;7.75;2.60;;;13.20;79.60;;;;;;2313589;55;21033;-67
2024/03/20 08:25:37;;;;;;;4.78;2.72;;;13.30;79.60;;;;;;2313289;55;21044;-66
2024/03/20 08:28:04;;;;;;;4.75;2.42;;;13.40;80.20;;;;;;2311673;55;20961;-66
2024/03/20 08:30:31;;;;;;;4.80;2.85;;;13.50;79.40;;;;;;2315592;55;20973;-67
2024/03/20 08:32:57;;;;;;;3.62;2.20;;;13.60;79.50;;;;;;2306157;55;21076;-67
2024/03/20 08:35:23;;;;;;;4.78;2.80;;;13.70;79.60;;;;;;2294214;55;21008;-68
2024/03/20 08:37:50;;;;;;;6.40;3.05;;;13.80;79.60;;;;;;2311630;53;20973;-66
2024/03/20 08:40:16;;;;;;;6.80;2.70;;;13.90;79.50;;;;;;2314679;54;21051;-68
2024/03/20 08:42:43;;;;;;;4.03;2.40;;;14.00;79.50;;;;;;2312358;53;20977;-66
2024/03/20 08:45:09;;;;;;;4.15;2.37;;;14.10;79.60;;;;;;2312296;53;21759;-67
2024/03/20 08:47:36;;;;;;;4.07;2.67;;;14.20;79.80;;;;;;2313384;55;21815;-68
2024/03/20 08:50:03;;;;;;;4.22;2.47;;;14.30;79.90;;;;;;2313928;55;21330;-67
2024/03/20 08:52:29;;;;;;;5.00;2.60;;;14.40;80.10;;;;;;2254774;55;2272215;-67
2024/03/20 08:54:55;;;;;;;4.55;2.50;;;14.60;80.30;;;;;;2312262;53;20989;-67
2024/03/20 08:57:22;;;;;;;5.28;3.70;;;14.70;80.70;;;;;;2313374;53;20981;-67
2024/03/20 08:59:48;;;;;;;5.55;3.83;;;14.80;81.40;;;;;;2311312;53;21024;-67
2024/03/20 09:02:14;;;;;;;6.05;4.25;;;14.90;81.80;;;;;;2313712;53;21005;-68
2024/03/20 09:04:41;;;;;;;7.62;4.32;;;15.10;82.30;;;;;;2311862;54;21036;-68
2024/03/20 09:07:07;;;;;;;6.37;3.95;;;15.20;82.00;;;;;;2312792;53;20969;-68
2024/03/20 09:09:34;;;;;;;6.65;4.07;;;15.40;81.60;;;;;;2313364;55;21446;-68
2024/03/20 09:12:04;;;;;;;6.35;3.87;;;15.50;81.20;;;;;;2313017;55;20947;-67
2024/03/20 09:14:34;;;;;;;6.57;4.18;;;15.60;81.00;;;;;;2313916;55;21032;-67
2024/03/20 09:17:01;;;;;;;7.37;4.43;;;15.70;81.00;;;;;;2313042;53;21025;-67
2024/03/20 09:19:27;;;;;;;5.60;4.12;;;15.80;81.30;;;;;;2312297;55;21438;-68
2024/03/20 09:21:53;;;;;;;5.45;3.53;;;16.00;81.30;;;;;;2312685;53;20997;-68
2024/03/20 09:24:22;;;;;;;7.00;4.50;;;16.10;81.00;;;;;;2310945;53;21000;-67
2024/03/20 09:26:49;;;;;;;7.87;4.50;;;16.20;80.80;;;;;;2313284;55;21044;-68
2024/03/20 09:29:16;;;;;;;5.93;3.95;;;16.30;80.60;;;;;;2313667;53;20961;-67
2024/03/20 09:31:43;;;;;;;6.03;3.80;;;16.40;80.50;;;;;;2312820;54;21009;-68
2024/03/20 09:34:09;;;;;;;6.30;4.12;;;16.50;80.40;;;;;;2312543;53;21008;-68
2024/03/20 09:36:36;;;;;;;6.57;4.15;;;16.50;80.30;;;;;;2312495;53;21339;-68
2024/03/20 09:39:03;;;;;;;6.18;4.10;;;16.60;80.20;;;;;;2313661;55;20945;-67
2024/03/20 09:41:29;;;;;;;5.87;4.05;;;16.70;80.10;;;;;;2313893;53;21297;-68
2024/03/20 09:43:55;;;;;;;6.60;4.03;;;16.90;80.30;;;;;;2312346;54;21009;-67
2024/03/20 09:46:22;;;;;;;6.62;4.37;;;16.90;80.30;;;;;;2311489;55;21025;-67
2024/03/20 09:48:51;;;;;;;6.80;4.10;;;17.00;80.60;;;;;;2312553;53;21025;-67
2024/03/20 09:51:18;;;;;;;6.07;4.20;;;17.10;80.50;;;;;;2314732;55;21025;-67
2024/03/20 09:53:49;;;;;;;5.70;4.00;;;17.20;80.70;;;;;;2313374;55;21308;-67
2024/03/20 09:56:17;;;;;;;4.90;3.45;;;17.30;80.50;;;;;;2313569;53;20961;-68
2024/03/20 09:58:43;;;;;;;6.62;3.83;;;17.40;80.40;;;;;;2313069;55;21716;-68
2024/03/20 10:01:13;;;;;;;6.70;3.17;;;17.50;80.40;;;;;;2313158;53;21361;-68
2024/03/20 10:03:40;;;;;;;4.32;2.97;;;17.60;79.70;;;;;;2313160;55;20937;-69
2024/03/20 10:06:06;;;;;;;4.28;2.25;;;17.70;79.90;;;;;;2312723;55;20929;-67
2024/03/20 10:08:38;;;;;;;4.10;2.72;;;17.80;79.70;;;;;;2313834;55;20930;-68
2024/03/20 10:11:08;;;;;;;4.30;2.33;;;17.90;79.50;;;;;;2314106;55;20967;-67
2024/03/20 10:13:34;;;;;;;5.50;2.35;;;17.90;79.60;;;;;;2314889;55;21197;-67
2024/03/20 10:16:05;;;;;;;4.93;2.22;;;18.00;80.00;;;;;;2312953;53;21395;-67
2024/03/20 10:18:35;;;;;;;3.92;2.12;;;18.10;79.50;;;;;;2313209;55;20944;-68
2024/03/20 10:21:02;;;;;;;5.43;2.35;;;18.20;80.10;;;;;;2313063;55;21008;-67
2024/03/20 10:23:28;;;;;;;3.50;2.20;;;18.30;80.00;;;;;;2314708;53;21060;-67
2024/03/20 10:26:16;;;;;;;4.18;2.47;;;18.40;79.90;;;;;;2312962;54;20961;-68
2024/03/20 10:28:46;;;;;;;3.83;2.53;;;18.50;78.40;;;;;;2316610;53;21277;-67
2024/03/20 10:31:13;;;;;;;3.72;2.17;;;18.50;79.60;;;;;;2311098;55;21865;-68
2024/03/20 10:33:42;;;;;;;4.00;2.33;;;18.60;79.40;;;;;;2313333;53;20961;-68
2024/03/20 10:36:13;;;;;;;4.53;2.33;;;18.70;79.40;;;;;;2312108;54;20941;-68
2024/03/20 10:38:39;;;;;;;4.07;2.47;;;18.70;78.80;;;;;;2313015;55;21045;-68
2024/03/20 10:41:05;;;;;;;5.00;2.17;;;18.80;79.10;;;;;;2312313;53;20972;-68
2024/03/20 10:43:34;;;;;;;3.28;2.00;;;18.80;79.00;;;;;;2312987;54;20984;-67
2024/03/20 10:46:00;;;;;;;4.32;2.22;;;18.90;79.10;;;;;;2312726;53;21024;-68
2024/03/20 10:48:26;;;;;;;4.00;2.45;;;18.90;78.90;;;;;;2313290;55;21181;-69
2024/03/20 10:50:53;;;;;;;3.42;1.98;;;19.00;78.70;;;;;;2313093;55;21032;-67
2024/03/20 10:53:26;;;;;;;4.22;1.90;;;19.00;78.40;;;;;;2313187;55;21251;-68
2024/03/20 10:55:53;;;;;;;2.83;1.65;;;19.00;77.70;;;;;;2313292;55;20965;-68
2024/03/20 10:58:22;;;;;;;3.12;1.62;;;19.10;78.10;;;;;;2312951;53;20957;-67
2024/03/20 11:00:57;;;;;;;4.28;1.73;;;19.20;78.00;;;;;;2311317;55;20997;-68
2024/03/20 11:03:48;;;;;;;3.05;1.75;;;19.20;77.30;;;;;;2312723;53;20977;-67
2024/03/20 11:07:48;;;;;;;2.62;1.50;;;19.20;76.60;;;;;;2312409;53;21008;-67
2024/03/20 11:10:17;;;;;;;2.30;1.30;;;19.30;76.70;;;;;;2313394;55;20928;-69
2024/03/20 11:12:44;;;;;;;4.03;1.62;;;19.40;79.50;;;;;;2313331;53;20933;-68
2024/03/20 11:15:16;;;;;;;2.45;1.30;;;19.50;79.50;;;;;;2314553;53;20997;-68
2024/03/20 11:17:48;;;;;;;4.07;1.70;;;19.60;78.80;;;;;;2310847;54;20965;-67
2024/03/20 11:20:41;;;;;;;3.65;1.90;;;19.60;78.90;;;;;;2312706;55;21434;-68
2024/03/20 11:23:10;;;;;;;4.57;1.73;;;19.80;76.60;;;;;;2313356;55;20937;-67
2024/03/20 11:25:36;;;;;;;3.53;1.73;;;19.80;79.00;;;;;;2313708;53;21032;-67
2024/03/20 11:28:03;;;;;;;4.05;1.40;;;19.90;79.30;;;;;;2312573;53;21198;-67
2024/03/20 11:30:31;;;;;;;3.42;1.62;;;19.90;79.80;;;;;;2312800;55;20956;-67
2024/03/20 11:32:57;;;;;;;4.12;1.50;;;20.00;80.00;;;;;;2312796;55;20997;-69
2024/03/20 11:35:26;;;;;;;3.30;1.50;;;20.10;80.20;;;;;;2313057;53;20996;-68
2024/03/20 11:37:52;;;;;;;3.05;1.60;;;20.20;80.60;;;;;;2314189;53;20977;-71
2024/03/20 11:40:19;;;;;;;2.70;1.30;;;20.40;80.50;;;;;;2312349;55;21810;-70
2024/03/20 11:42:49;;;;;;;1.85;1.10;;;20.40;80.30;;;;;;2311376;53;20921;-68
2024/03/20 11:45:18;;;;;;;2.47;1.30;;;20.50;79.90;;;;;;2313123;53;20965;-67
2024/03/20 11:47:47;;;;;;;2.50;1.20;;;20.60;79.70;;;;;;2313177;53;21407;-66
2024/03/20 11:50:16;;;;;;;2.67;1.10;;;20.70;79.30;;;;;;2312984;55;20945;-68
2024/03/20 11:52:43;;;;;;;3.95;1.10;;;20.80;79.20;;;;;;2313307;55;21021;-67
2024/03/20 11:55:15;;;;;;;2.50;1.10;;;20.80;78.90;;;;;;2313807;53;21086;-69
2024/03/20 11:57:42;;;;;;;4.22;1.20;;;20.90;78.50;;;;;;2313526;55;21360;-67
2024/03/20 12:00:13;;;;;;;3.70;1.20;;;20.90;78.00;;;;;;2311328;53;21190;-67
2024/03/20 12:02:40;;;;;;;2.40;1.12;;;21.00;77.30;;;;;;2313575;55;21241;-66
2024/03/20 12:05:09;;;;;;;2.97;1.05;;;21.00;77.70;;;;;;2313198;55;22477;-68
2024/03/20 12:07:39;;;;;;;2.00;0.80;;;21.00;77.50;;;;;;2311302;55;20949;-69
2024/03/20 12:10:26;;;;;;;2.17;1.08;;;21.00;77.30;;;;;;2314968;55;21096;-68
2024/03/20 12:12:53;;;;;;;4.65;1.10;;;21.10;76.70;;;;;;2311940;53;20937;-67
2024/03/20 12:15:21;;;;;;;1.85;1.00;;;21.10;77.10;;;;;;2314312;53;21217;-67
2024/03/20 12:17:51;;;;;;;3.22;1.10;;;21.10;77.10;;;;;;2313258;53;21079;-66
2024/03/20 12:20:18;;;;;;;2.30;0.90;;;21.10;76.80;;;;;;2314462;55;20953;-66
2024/03/20 12:22:45;;;;;;;2.83;1.30;;;21.20;77.30;;;;;;2313735;53;20978;-68
2024/03/20 12:25:12;;;;;;;3.00;1.30;;;21.20;77.60;;;;;;2312568;55;21398;-67
2024/03/20 12:27:40;;;;;;;2.50;1.15;;;21.30;77.70;;;;;;2313771;53;20989;-66
2024/03/20 12:30:13;;;;;;;3.55;1.25;;;21.30;77.70;;;;;;2311979;53;20988;-66
2024/03/20 12:32:39;;;;;;;3.08;1.20;;;21.40;77.30;;;;;;2313840;54;20976;-66
2024/03/20 12:35:06;;;;;;;3.20;1.42;;;21.40;77.80;;;;;;2313592;55;20957;-65
2024/03/20 12:37:33;;;;;;;2.72;1.10;;;21.50;77.90;;;;;;2312371;55;20945;-68
2024/03/20 12:40:05;;;;;;;2.08;1.10;;;21.50;77.70;;;;;;2313547;55;21289;-67
2024/03/20 12:42:32;;;;;;;2.67;1.20;;;21.50;76.90;;;;;;2311462;53;21739;-67
2024/03/20 12:45:01;;;;;;;2.85;1.25;;;21.60;77.30;;;;;;2312281;53;21487;-67
2024/03/20 12:47:30;;;;;;;2.05;0.93;;;21.60;76.80;;;;;;2313447;53;20953;-69
2024/03/20 12:49:57;;;;;;;3.08;1.20;;;21.70;76.70;;;;;;2311260;53;21497;-70
2024/03/20 12:52:25;;;;;;;2.20;1.00;;;21.70;76.40;;;;;;2314851;55;20997;-69